createdAt,value
2023-04-10T00:00:23.449Z,19.67
2023-04-10T00:02:50.083Z,20.75
2023-04-10T00:05:16.783Z,19.98
2023-04-10T00:07:43.334Z,21.27
2023-04-10T00:10:10.533Z,22.02
2023-04-10T00:12:37.904Z,20.05
2023-04-10T00:15:04.801Z,20.75
2023-04-10T00:17:31.396Z,21.70
2023-04-10T00:19:59.383Z,20.88
2023-04-10T00:22:26.601Z,21.48
2023-04-10T00:24:53.343Z,21.40
2023-04-10T00:27:19.909Z,21.08
2023-04-10T00:29:46.492Z,22.27
2023-04-10T00:32:13.192Z,22.02
2023-04-10T00:34:39.779Z,21.55
2023-04-10T00:37:06.432Z,21.98
2023-04-10T00:39:33.023Z,23.40
2023-04-10T00:41:59.771Z,21.95
2023-04-10T00:44:26.542Z,22.95
2023-04-10T00:46:53.142Z,23.35
2023-04-10T00:49:19.783Z,23.45
2023-04-10T00:51:48.885Z,22.75
2023-04-10T00:54:15.556Z,23.40
2023-04-10T00:56:42.431Z,24.23
2023-04-10T00:59:09.368Z,23.35
2023-04-10T01:01:36.038Z,23.90
2023-04-10T01:04:03.078Z,23.67
2023-04-10T01:06:58.475Z,22.92
2023-04-10T01:09:34.306Z,23.50
2023-04-10T01:12:12.848Z,22.15
2023-04-10T01:15:17.369Z,22.38
2023-04-10T01:18:10.466Z,22.95
2023-04-10T01:20:39.648Z,21.73
2023-04-10T01:23:28.002Z,21.38
2023-04-10T01:25:54.460Z,22.35
2023-04-10T01:28:38.979Z,20.20
2023-04-10T01:31:06.556Z,22.17
2023-04-10T01:33:39.831Z,21.77
2023-04-10T01:36:08.296Z,20.80
2023-04-10T01:38:36.346Z,21.52
2023-04-10T01:41:03.517Z,20.30
2023-04-10T01:43:31.515Z,20.50
2023-04-10T01:45:58.728Z,20.65
2023-04-10T01:48:26.105Z,19.95
2023-04-10T01:50:53.180Z,22.02
2023-04-10T01:53:20.644Z,21.55
2023-04-10T01:55:47.432Z,21.48
2023-04-10T01:58:14.108Z,22.98
2023-04-10T02:00:41.863Z,21.15
2023-04-10T02:03:09.203Z,21.50
2023-04-10T02:06:05.303Z,21.85
2023-04-10T02:08:36.614Z,21.95
2023-04-10T02:11:16.120Z,21.38
2023-04-10T02:13:42.774Z,20.33
2023-04-10T02:16:09.893Z,22.05
2023-04-10T02:18:37.078Z,20.40
2023-04-10T02:21:03.992Z,19.92
2023-04-10T02:23:30.546Z,20.23
2023-04-10T02:25:58.548Z,20.13
2023-04-10T02:28:26.012Z,19.50
2023-04-10T02:30:52.635Z,19.08
2023-04-10T02:33:19.250Z,18.05
2023-04-10T02:35:45.738Z,20.08
2023-04-10T02:38:12.868Z,18.48
2023-04-10T02:40:39.884Z,18.15
2023-04-10T02:43:06.632Z,18.67
2023-04-10T02:45:33.489Z,18.55
2023-04-10T02:48:00.217Z,18.50
2023-04-10T02:50:29.699Z,17.17
2023-04-10T02:52:56.765Z,17.83
2023-04-10T02:55:23.474Z,16.95
2023-04-10T02:57:50.052Z,16.88
2023-04-10T03:00:16.972Z,16.33
2023-04-10T03:02:43.731Z,16.25
2023-04-10T03:05:10.244Z,15.73
2023-04-10T03:07:36.783Z,16.35
2023-04-10T03:10:03.550Z,15.90
2023-04-10T03:12:30.028Z,15.57
2023-04-10T03:14:56.536Z,15.55
2023-04-10T03:17:23.031Z,16.58
2023-04-10T03:19:49.617Z,15.75
2023-04-10T03:22:16.287Z,16.02
2023-04-10T03:24:42.822Z,15.65
2023-04-10T03:27:09.305Z,15.70
2023-04-10T03:29:35.841Z,15.60
2023-04-10T03:32:02.622Z,15.38
2023-04-10T03:34:29.306Z,14.73
2023-04-10T03:36:56.015Z,15.68
2023-04-10T03:39:23.622Z,15.30
2023-04-10T03:41:50.338Z,14.75
2023-04-10T03:44:17.842Z,16.70
2023-04-10T03:46:44.502Z,14.60
2023-04-10T03:49:11.285Z,14.95
2023-04-10T03:51:37.741Z,14.80
2023-04-10T03:54:04.261Z,13.88
2023-04-10T03:56:30.865Z,14.95
2023-04-10T03:58:57.298Z,14.20
2023-04-10T04:01:23.909Z,14.88
2023-04-10T04:03:50.589Z,13.32
2023-04-10T04:06:17.288Z,15.65
2023-04-10T04:08:43.792Z,14.75
2023-04-10T04:11:11.462Z,14.65
2023-04-10T04:13:39.086Z,15.52
2023-04-10T04:16:06.084Z,15.98
2023-04-10T04:18:32.823Z,16.92
2023-04-10T04:20:59.282Z,16.38
2023-04-10T04:23:25.837Z,16.83
2023-04-10T04:25:54.356Z,16.95
2023-04-10T04:28:21.025Z,15.73
2023-04-10T04:30:48.014Z,15.68
2023-04-10T04:33:14.560Z,16.40
2023-04-10T04:35:41.108Z,16.08
2023-04-10T04:38:07.650Z,16.15
2023-04-10T04:40:34.252Z,14.90
2023-04-10T04:43:00.724Z,14.10
2023-04-10T04:45:27.239Z,14.75
2023-04-10T04:47:53.844Z,15.23
2023-04-10T04:50:20.365Z,14.60
2023-04-10T04:52:46.908Z,13.98
2023-04-10T04:55:13.429Z,14.88
2023-04-10T04:57:39.960Z,13.82
2023-04-10T05:00:16.896Z,14.00
2023-04-10T05:02:43.679Z,14.57
2023-04-10T05:05:10.279Z,13.55
2023-04-10T05:07:36.805Z,13.10
2023-04-10T05:10:03.406Z,13.75
2023-04-10T05:12:29.961Z,13.15
2023-04-10T05:14:56.449Z,13.23
2023-04-10T05:17:23.061Z,13.30
2023-04-10T05:19:49.538Z,12.98
2023-04-10T05:22:18.517Z,14.00
2023-04-10T05:24:45.229Z,13.90
2023-04-10T05:27:11.769Z,12.70
2023-04-10T05:29:38.407Z,12.85
2023-04-10T05:32:05.055Z,12.00
2023-04-10T05:34:31.500Z,13.00
2023-04-10T05:36:59.084Z,13.35
2023-04-10T05:39:25.800Z,12.05
2023-04-10T05:41:52.273Z,14.25
2023-04-10T05:44:18.724Z,12.95
2023-04-10T05:46:45.526Z,14.85
2023-04-10T05:49:12.023Z,13.85
2023-04-10T05:51:38.647Z,12.70
2023-04-10T05:54:05.147Z,12.23
2023-04-10T05:56:31.629Z,11.98
2023-04-10T05:58:58.155Z,12.00
2023-04-10T06:01:24.633Z,12.20
2023-04-10T06:03:51.339Z,12.85
2023-04-10T06:06:21.590Z,11.95
2023-04-10T06:08:48.086Z,11.57
2023-04-10T06:11:14.740Z,11.43
2023-04-10T06:13:41.348Z,11.40
2023-04-10T06:16:08.531Z,11.13
2023-04-10T06:18:35.502Z,11.77
2023-04-10T06:21:02.119Z,18.10
2023-04-10T06:23:28.955Z,12.38
2023-04-10T06:25:56.089Z,12.18
2023-04-10T06:28:22.612Z,11.68
2023-04-10T06:30:49.122Z,12.10
2023-04-10T06:33:16.316Z,13.98
2023-04-10T06:35:42.923Z,11.48
2023-04-10T06:38:09.487Z,10.38
2023-04-10T06:40:36.150Z,10.07
2023-04-10T06:43:02.666Z,10.05
2023-04-10T06:45:29.150Z,10.88
2023-04-10T06:47:55.767Z,9.93
2023-04-10T06:50:22.320Z,10.88
2023-04-10T06:52:48.855Z,9.73
2023-04-10T06:55:15.500Z,9.80
2023-04-10T06:57:42.056Z,10.18
2023-04-10T07:00:09.539Z,10.48
2023-04-10T07:02:36.248Z,10.90
2023-04-10T07:05:03.032Z,10.43
2023-04-10T07:07:29.655Z,10.07
2023-04-10T07:09:57.872Z,9.85
2023-04-10T07:12:24.368Z,9.65
2023-04-10T07:14:50.915Z,10.30
2023-04-10T07:17:17.442Z,10.90
2023-04-10T07:19:43.907Z,9.88
2023-04-10T07:22:10.391Z,10.00
2023-04-10T07:24:37.379Z,9.55
2023-04-10T07:27:06.424Z,9.63
2023-04-10T07:29:32.984Z,9.30
2023-04-10T07:31:59.682Z,10.07
2023-04-10T07:34:26.617Z,9.25
2023-04-10T07:36:53.256Z,9.93
2023-04-10T07:39:19.821Z,11.18
2023-04-10T07:41:46.434Z,9.70
2023-04-10T07:44:13.304Z,9.95
2023-04-10T07:46:40.122Z,10.07
2023-04-10T07:49:08.579Z,9.40
2023-04-10T07:51:35.616Z,9.43
2023-04-10T07:54:04.043Z,8.45
2023-04-10T07:56:33.303Z,8.80
2023-04-10T07:59:03.521Z,8.85
2023-04-10T08:01:29.992Z,8.85
2023-04-10T08:03:58.257Z,8.35
2023-04-10T08:06:25.871Z,8.90
2023-04-10T08:08:53.069Z,9.30
2023-04-10T08:11:24.824Z,9.05
2023-04-10T08:13:52.647Z,8.93
2023-04-10T08:16:23.245Z,8.85
2023-04-10T08:18:53.071Z,8.95
2023-04-10T08:21:23.457Z,8.73
2023-04-10T08:23:51.348Z,8.70
2023-04-10T08:26:18.109Z,8.98
2023-04-10T08:28:49.352Z,8.82
2023-04-10T08:31:16.132Z,9.20
2023-04-10T08:33:42.777Z,8.45
2023-04-10T08:36:10.231Z,8.68
2023-04-10T08:38:36.902Z,9.25
2023-04-10T08:41:06.303Z,9.60
2023-04-10T08:43:34.658Z,8.35
2023-04-10T08:46:01.802Z,8.82
2023-04-10T08:48:36.071Z,9.07
2023-04-10T08:51:08.864Z,7.90
2023-04-10T08:53:41.371Z,9.15
2023-04-10T08:56:08.451Z,8.10
2023-04-10T08:58:35.777Z,8.35
2023-04-10T09:01:02.581Z,8.50
2023-04-10T09:03:29.629Z,8.50
2023-04-10T09:05:56.928Z,8.45
2023-04-10T09:08:23.556Z,8.27
2023-04-10T09:10:50.155Z,8.52
2023-04-10T09:13:16.713Z,8.35
2023-04-10T09:16:02.466Z,8.13
2023-04-10T09:18:42.567Z,7.93
2023-04-10T09:21:11.109Z,8.07
2023-04-10T09:23:37.863Z,8.82
2023-04-10T09:26:24.556Z,7.30
2023-04-10T09:29:05.205Z,7.40
2023-04-10T09:31:31.891Z,7.90
2023-04-10T09:34:11.096Z,9.55
2023-04-10T09:36:38.312Z,7.90
2023-04-10T09:39:05.972Z,7.78
2023-04-10T09:41:32.628Z,8.07
2023-04-10T09:44:12.002Z,7.00
2023-04-10T09:46:38.643Z,7.30
2023-04-10T09:49:07.064Z,7.57
2023-04-10T09:51:35.596Z,7.82
2023-04-10T09:54:03.187Z,7.70
2023-04-10T09:56:30.344Z,7.75
2023-04-10T09:59:01.089Z,7.43
2023-04-10T10:01:28.899Z,7.20
2023-04-10T10:03:56.469Z,6.68
2023-04-10T10:06:23.558Z,7.30
2023-04-10T10:08:51.055Z,7.78
2023-04-10T10:11:25.032Z,7.88
2023-04-10T10:13:57.085Z,7.82
2023-04-10T10:16:36.753Z,8.65
2023-04-10T10:19:08.688Z,7.90
2023-04-10T10:21:35.909Z,8.55
2023-04-10T10:24:03.216Z,8.23
2023-04-10T10:26:30.612Z,7.90
2023-04-10T10:28:58.357Z,7.30
2023-04-10T10:31:25.881Z,8.30
2023-04-10T10:33:52.993Z,8.40
2023-04-10T10:36:20.339Z,8.45
2023-04-10T10:39:09.995Z,8.98
2023-04-10T10:41:45.247Z,8.52
2023-04-10T10:44:16.831Z,7.95
2023-04-10T10:47:03.414Z,7.70
2023-04-10T10:49:57.367Z,8.85
2023-04-10T10:52:44.969Z,8.65
2023-04-10T10:55:31.557Z,8.50
2023-04-10T10:58:00.425Z,8.07
2023-04-10T11:00:52.621Z,8.18
2023-04-10T11:03:19.308Z,8.82
2023-04-10T11:05:52.740Z,7.97
2023-04-10T11:08:36.164Z,7.72
2023-04-10T11:11:29.528Z,8.18
2023-04-10T11:13:58.982Z,8.40
2023-04-10T11:16:35.911Z,7.90
2023-04-10T11:19:14.366Z,8.63
2023-04-10T11:22:07.499Z,7.75
2023-04-10T11:24:57.898Z,8.00
2023-04-10T11:27:52.774Z,7.97
2023-04-10T11:30:29.042Z,8.50
2023-04-10T11:32:55.992Z,8.02
2023-04-10T11:35:22.813Z,7.88
2023-04-10T11:37:49.499Z,8.10
2023-04-10T11:40:16.798Z,7.90
2023-04-10T11:42:43.562Z,7.55
2023-04-10T11:45:26.760Z,8.10
2023-04-10T11:47:54.038Z,7.57
2023-04-10T11:50:21.368Z,7.55
2023-04-10T11:52:50.634Z,7.88
2023-04-10T11:55:17.321Z,7.90
2023-04-10T11:57:45.839Z,8.38
2023-04-10T12:00:13.605Z,7.13
2023-04-10T12:02:55.655Z,7.53
2023-04-10T12:05:22.508Z,7.97
2023-04-10T12:07:50.341Z,7.80
2023-04-10T12:10:16.963Z,8.45
2023-04-10T12:12:43.541Z,8.18
2023-04-10T12:15:27.273Z,8.02
2023-04-10T12:17:54.584Z,8.52
2023-04-10T12:20:23.805Z,7.63
2023-04-10T12:22:50.618Z,8.30
2023-04-10T12:25:21.122Z,8.73
2023-04-10T12:27:49.936Z,7.90
2023-04-10T12:30:16.555Z,7.93
2023-04-10T12:32:51.393Z,7.82
2023-04-10T12:35:17.873Z,7.45
2023-04-10T12:37:49.104Z,8.02
2023-04-10T12:40:15.702Z,8.25
2023-04-10T12:42:43.064Z,7.97
2023-04-10T12:45:13.036Z,7.53
2023-04-10T12:47:51.787Z,8.10
2023-04-10T12:50:20.864Z,7.38
2023-04-10T12:53:03.088Z,6.90
2023-04-10T12:55:29.782Z,6.50
2023-04-10T12:57:57.023Z,7.50
2023-04-10T13:00:25.011Z,7.30
2023-04-10T13:02:51.740Z,8.02
2023-04-10T13:05:19.094Z,7.40
2023-04-10T13:07:45.840Z,7.30
2023-04-10T13:10:12.799Z,7.80
2023-04-10T13:12:40.719Z,7.38
2023-04-10T13:15:08.001Z,7.57
2023-04-10T13:17:34.885Z,7.60
2023-04-10T13:20:01.730Z,7.90
2023-04-10T13:22:28.373Z,7.53
2023-04-10T13:24:54.872Z,6.70
2023-04-10T13:27:21.383Z,7.55
2023-04-10T13:29:47.972Z,8.10
2023-04-10T13:32:14.602Z,7.18
2023-04-10T13:34:41.147Z,7.10
2023-04-10T13:37:13.087Z,7.65
2023-04-10T13:39:39.722Z,7.40
2023-04-10T13:42:06.462Z,7.88
2023-04-10T13:44:33.028Z,7.93
2023-04-10T13:46:59.803Z,7.85
2023-04-10T13:49:26.664Z,7.72
2023-04-10T13:51:53.179Z,7.35
2023-04-10T13:54:20.189Z,7.43
2023-04-10T13:56:46.970Z,8.10
2023-04-10T13:59:13.870Z,8.00
2023-04-10T14:01:40.508Z,8.40
2023-04-10T14:04:07.380Z,8.07
2023-04-10T14:06:34.102Z,8.00
2023-04-10T14:09:00.987Z,7.95
2023-04-10T14:11:27.578Z,8.02
2023-04-10T14:13:54.178Z,8.18
2023-04-10T14:16:20.899Z,8.20
2023-04-10T14:18:47.503Z,7.38
2023-04-10T14:21:14.087Z,7.70
2023-04-10T14:23:41.371Z,7.82
2023-04-10T14:26:08.229Z,8.02
2023-04-10T14:28:34.834Z,7.57
2023-04-10T14:31:01.384Z,8.13
2023-04-10T14:33:28.039Z,8.25
2023-04-10T14:35:54.908Z,7.88
2023-04-10T14:38:21.489Z,7.65
2023-04-10T14:40:50.195Z,8.95
2023-04-10T14:43:17.113Z,7.80
2023-04-10T14:45:43.876Z,7.90
2023-04-10T14:48:12.824Z,7.68
2023-04-10T14:50:39.800Z,8.15
2023-04-10T14:53:06.395Z,8.20
2023-04-10T14:55:32.912Z,7.97
2023-04-10T14:57:59.436Z,8.90
2023-04-10T15:00:26.462Z,8.85
2023-04-10T15:02:53.300Z,8.15
2023-04-10T15:05:20.427Z,7.65
2023-04-10T15:07:47.092Z,8.13
2023-04-10T15:10:13.955Z,8.57
2023-04-10T15:12:40.573Z,8.27
2023-04-10T15:15:07.774Z,8.25
2023-04-10T15:17:34.322Z,8.70
2023-04-10T15:20:00.820Z,8.43
2023-04-10T15:22:27.647Z,9.05
2023-04-10T15:24:54.219Z,9.05
2023-04-10T15:27:23.684Z,9.32
2023-04-10T15:29:50.297Z,9.63
2023-04-10T15:32:16.881Z,8.23
2023-04-10T15:34:44.445Z,8.88
2023-04-10T15:37:11.625Z,8.32
2023-04-10T15:39:39.358Z,7.50
2023-04-10T15:42:08.142Z,7.95
2023-04-10T15:44:34.847Z,7.95
2023-04-10T15:47:01.573Z,7.30
2023-04-10T15:49:38.971Z,8.23
2023-04-10T15:52:06.490Z,9.07
2023-04-10T15:54:33.881Z,7.70
2023-04-10T15:57:01.828Z,7.53
2023-04-10T15:59:28.511Z,8.05
2023-04-10T16:01:55.089Z,8.02
2023-04-10T16:04:21.873Z,8.23
2023-04-10T16:06:48.483Z,7.80
2023-04-10T16:09:25.510Z,8.02
2023-04-10T16:11:54.482Z,8.20
2023-04-10T16:14:21.745Z,7.53
2023-04-10T16:16:53.319Z,7.63
2023-04-10T16:19:19.980Z,7.57
2023-04-10T16:21:46.507Z,7.53
2023-04-10T16:24:13.200Z,7.65
2023-04-10T16:26:39.720Z,8.07
2023-04-10T16:29:06.627Z,7.63
2023-04-10T16:31:33.508Z,7.90
2023-04-10T16:34:01.342Z,7.50
2023-04-10T16:36:27.906Z,7.35
2023-04-10T16:38:54.762Z,7.47
2023-04-10T16:41:21.514Z,8.27
2023-04-10T16:43:48.279Z,7.78
2023-04-10T16:46:15.028Z,7.60
2023-04-10T16:48:41.765Z,8.05
2023-04-10T16:51:10.658Z,7.30
2023-04-10T16:53:37.578Z,7.40
2023-04-10T16:56:05.724Z,7.63
2023-04-10T16:58:33.937Z,7.80
2023-04-10T17:01:00.936Z,7.38
2023-04-10T17:03:27.574Z,7.55
2023-04-10T17:05:54.140Z,7.57
2023-04-10T17:08:20.727Z,8.20
2023-04-10T17:10:47.379Z,7.40
2023-04-10T17:13:14.032Z,7.20
2023-04-10T17:15:40.625Z,7.35
2023-04-10T17:18:07.377Z,7.32
2023-04-10T17:20:37.159Z,7.63
2023-04-10T17:23:03.755Z,7.25
2023-04-10T17:25:30.737Z,7.85
2023-04-10T17:27:57.808Z,7.47
2023-04-10T17:30:24.528Z,7.30
2023-04-10T17:32:51.246Z,7.45
2023-04-10T17:35:17.749Z,7.05
2023-04-10T17:37:44.357Z,8.25
2023-04-10T17:40:11.476Z,6.97
2023-04-10T17:42:38.051Z,7.95
2023-04-10T17:45:05.484Z,8.38
2023-04-10T17:47:32.130Z,7.60
2023-04-10T17:49:58.623Z,7.70
2023-04-10T17:52:25.337Z,8.55
2023-04-10T17:54:55.050Z,7.70
2023-04-10T17:57:28.840Z,7.85
2023-04-10T17:59:56.743Z,7.28
2023-04-10T18:02:26.261Z,7.15
2023-04-10T18:05:06.749Z,7.32
2023-04-10T18:07:55.532Z,7.25
2023-04-10T18:10:24.094Z,7.40
2023-04-10T18:12:57.533Z,7.40
2023-04-10T18:15:30.343Z,6.53
2023-04-10T18:18:02.278Z,7.13
2023-04-10T18:20:30.732Z,7.10
2023-04-10T18:22:59.892Z,7.10
2023-04-10T18:25:29.620Z,6.95
2023-04-10T18:28:13.674Z,6.90
2023-04-10T18:30:42.140Z,6.72
2023-04-10T18:33:11.345Z,6.97
2023-04-10T18:35:44.349Z,7.13
2023-04-10T18:38:14.586Z,7.68
2023-04-10T18:40:51.141Z,7.22
2023-04-10T18:43:32.490Z,7.50
2023-04-10T18:46:03.164Z,7.68
2023-04-10T18:48:38.863Z,8.30
2023-04-10T18:51:10.745Z,8.70
2023-04-10T18:53:41.904Z,7.50
2023-04-10T18:56:15.385Z,7.93
2023-04-10T18:58:49.044Z,7.40
2023-04-10T19:01:31.098Z,8.40
2023-04-10T19:04:20.366Z,7.72
2023-04-10T19:06:49.504Z,8.70
2023-04-10T19:09:17.107Z,8.45
2023-04-10T19:11:48.599Z,8.10
2023-04-10T19:14:26.529Z,8.02
2023-04-10T19:16:54.147Z,8.05
2023-04-10T19:19:24.020Z,7.35
2023-04-10T19:21:51.540Z,7.20
2023-04-10T19:24:22.797Z,7.43
2023-04-10T19:26:56.435Z,7.32
2023-04-10T19:29:27.095Z,7.85
2023-04-10T19:32:05.274Z,8.32
2023-04-10T19:34:46.862Z,7.45
2023-04-10T19:37:23.091Z,7.45
2023-04-10T19:39:52.142Z,7.68
2023-04-10T19:42:35.017Z,7.85
2023-04-10T19:45:03.087Z,6.65
2023-04-10T19:47:31.941Z,10.07
2023-04-10T19:49:59.399Z,7.43
2023-04-10T19:52:29.618Z,6.63
2023-04-10T19:55:27.740Z,5.63
2023-04-10T19:58:00.081Z,5.20
2023-04-10T20:00:39.199Z,5.40
2023-04-10T20:03:06.801Z,5.53
2023-04-10T20:05:37.707Z,5.45
2023-04-10T20:08:04.829Z,5.97
2023-04-10T20:10:33.814Z,5.47
2023-04-10T20:13:02.932Z,5.57
2023-04-10T20:15:31.618Z,5.15
2023-04-10T20:18:01.840Z,5.78
2023-04-10T20:20:35.914Z,5.80
2023-04-10T20:23:08.938Z,6.05
2023-04-10T20:25:40.673Z,5.88
2023-04-10T20:28:09.142Z,5.55
2023-04-10T20:30:37.980Z,5.82
2023-04-10T20:33:05.381Z,5.10
2023-04-10T20:35:32.198Z,5.10
2023-04-10T20:37:58.936Z,5.00
2023-04-10T20:40:25.698Z,5.90
2023-04-10T20:42:53.443Z,5.03
2023-04-10T20:45:20.044Z,4.95
2023-04-10T20:47:46.710Z,4.38
2023-04-10T20:50:13.420Z,4.53
2023-04-10T20:52:40.057Z,4.43
2023-04-10T20:55:06.931Z,4.10
2023-04-10T20:57:33.616Z,4.25
2023-04-10T21:00:00.191Z,4.32
2023-04-10T21:02:26.806Z,4.40
2023-04-10T21:04:54.465Z,4.20
2023-04-10T21:07:20.953Z,4.13
2023-04-10T21:09:47.442Z,4.28
2023-04-10T21:12:14.029Z,4.10
2023-04-10T21:14:40.555Z,4.15
2023-04-10T21:17:07.029Z,4.20
2023-04-10T21:19:33.558Z,3.90
2023-04-10T21:22:00.376Z,4.00
2023-04-10T21:24:28.291Z,4.20
2023-04-10T21:26:54.737Z,4.30
2023-04-10T21:29:21.238Z,4.05
2023-04-10T21:31:49.319Z,4.15
2023-04-10T21:34:16.964Z,5.03
2023-04-10T21:36:43.512Z,4.03
2023-04-10T21:39:10.068Z,4.20
2023-04-10T21:41:37.529Z,4.10
2023-04-10T21:44:05.111Z,4.43
2023-04-10T21:46:32.074Z,4.13
2023-04-10T21:48:58.677Z,4.40
2023-04-10T21:51:26.937Z,3.85
2023-04-10T21:53:53.532Z,4.57
2023-04-10T21:56:20.784Z,3.83
2023-04-10T21:58:47.276Z,3.55
2023-04-10T22:01:13.770Z,3.72
2023-04-10T22:03:40.626Z,3.85
2023-04-10T22:06:07.719Z,3.70
2023-04-10T22:08:34.323Z,3.58
2023-04-10T22:11:00.862Z,3.83
2023-04-10T22:13:30.936Z,4.00
2023-04-10T22:15:58.450Z,3.75
2023-04-10T22:18:24.944Z,4.35
2023-04-10T22:20:51.547Z,3.53
2023-04-10T22:23:18.022Z,3.60
2023-04-10T22:25:44.571Z,3.72
2023-04-10T22:28:11.102Z,3.63
2023-04-10T22:30:37.631Z,3.90
2023-04-10T22:33:04.215Z,3.80
2023-04-10T22:35:30.947Z,3.75
2023-04-10T22:37:57.740Z,3.50
2023-04-10T22:40:24.290Z,3.60
2023-04-10T22:42:50.825Z,4.00
2023-04-10T22:45:17.331Z,4.00
2023-04-10T22:47:43.833Z,3.80
2023-04-10T22:50:10.555Z,3.70
2023-04-10T22:52:37.196Z,3.88
2023-04-10T22:55:06.745Z,3.80
2023-04-10T22:57:33.729Z,3.60
2023-04-10T23:00:00.911Z,3.90
2023-04-10T23:02:27.944Z,3.80
2023-04-10T23:04:54.661Z,3.83
2023-04-10T23:07:21.216Z,3.83
2023-04-10T23:09:47.717Z,4.00
2023-04-10T23:12:14.258Z,4.10
2023-04-10T23:14:40.935Z,4.20
2023-04-10T23:17:07.540Z,4.05
2023-04-10T23:19:34.019Z,4.22
2023-04-10T23:22:00.651Z,3.75
2023-04-10T23:24:27.148Z,4.15
2023-04-10T23:26:53.701Z,4.13
2023-04-10T23:29:20.312Z,4.03
2023-04-10T23:31:46.891Z,4.43
2023-04-10T23:34:13.428Z,4.75
2023-04-10T23:36:39.890Z,4.25
2023-04-10T23:39:06.392Z,4.10
2023-04-10T23:41:33.533Z,4.13
2023-04-10T23:44:00.113Z,4.28
2023-04-10T23:46:26.614Z,3.88
2023-04-10T23:48:54.861Z,4.10
2023-04-10T23:51:21.532Z,3.80
2023-04-10T23:53:48.171Z,4.28
2023-04-10T23:56:14.907Z,4.25
2023-04-10T23:58:41.453Z,4.43
